<?xml version="1.0" encoding="UTF-8" standalone="no" ?>
<gpx xmlns="http://www.topografix.com/GPX/1/1" xmlns:xsi="http://www.w3.org/2001/XMLSchema-instance" xsi:schemaLocation="http://www.topografix.com/GPX/1/1 http://www.topografix.com/GPX/1/1/gpx.xsd" version="1.1" creator="VisuGPX - https://www.visugpx.com">
  <metadata>
    <name>Raid Bulles : Barsuraubois</name>
    <desc><![CDATA[parcours RAID BULLES EN CHAMPAGNE 375KM]]></desc>
  </metadata>
  <wpt lat="48.1461" lon="4.76948">
    <ele>206.1</ele>
    <name><![CDATA[Ravitaillement chaud]]></name>
  </wpt>
  <wpt lat="48.14803" lon="4.83346">
    <ele>208.6</ele>
    <name><![CDATA[Départ réel]]></name>
  </wpt>
  <wpt lat="48.13585" lon="4.66919">
    <ele>253.9</ele>
    <name><![CDATA[Gravel début section]]></name>
  </wpt>
  <wpt lat="48.21735" lon="4.71382">
    <ele>168.8</ele>
  </wpt>
  <trk>
    <name><![CDATA[37. Circuit de Baroville, avec point de vue-17237848]]></name>
    <extensions>
      <line xmlns="http://www.topografix.com/GPX/gpx_style/0/2">
        <color>ff0f0f</color>
        <width>4</width>
      </line>
    </extensions>
    <trkseg>
      <trkpt lat="48.19224" lon="4.72246">
        <ele>220</ele>
        <time>2024-07-03T07:46:18Z</time>
      </trkpt>
      <trkpt lat="48.19236" lon="4.72228">
        <ele>219</ele>
        <time>2024-07-03T07:46:21Z</time>
      </trkpt>
      <trkpt lat="48.19118" lon="4.72346">
        <ele>227</ele>
        <time>2024-07-03T07:46:46Z</time>
      </trkpt>
      <trkpt lat="48.1902" lon="4.72439">
        <ele>232</ele>
        <time>2024-07-03T07:47:07Z</time>
      </trkpt>
      <trkpt lat="48.19028" lon="4.72472">
        <ele>233</ele>
        <time>2024-07-03T07:47:11Z</time>
      </trkpt>
      <trkpt lat="48.19005" lon="4.72439">
        <ele>233</ele>
        <time>2024-07-03T07:47:17Z</time>
      </trkpt>
      <trkpt lat="48.19001" lon="4.72473">
        <ele>234</ele>
        <time>2024-07-03T07:47:21Z</time>
      </trkpt>
      <trkpt lat="48.18918" lon="4.7258">
        <ele>251</ele>
        <time>2024-07-03T07:47:40Z</time>
      </trkpt>
      <trkpt lat="48.18842" lon="4.72687">
        <ele>261</ele>
        <time>2024-07-03T07:47:59Z</time>
      </trkpt>
      <trkpt lat="48.18809" lon="4.726">
        <ele>264</ele>
        <time>2024-07-03T07:48:11Z</time>
      </trkpt>
      <trkpt lat="48.18788" lon="4.72572">
        <ele>266</ele>
        <time>2024-07-03T07:48:16Z</time>
      </trkpt>
      <trkpt lat="48.18758" lon="4.72557">
        <ele>271</ele>
        <time>2024-07-03T07:48:21Z</time>
      </trkpt>
      <trkpt lat="48.18689" lon="4.72478">
        <ele>283</ele>
        <time>2024-07-03T07:48:37Z</time>
      </trkpt>
      <trkpt lat="48.18618" lon="4.72437">
        <ele>290</ele>
        <time>2024-07-03T07:48:50Z</time>
      </trkpt>
      <trkpt lat="48.18525" lon="4.72372">
        <ele>294</ele>
        <time>2024-07-03T07:49:09Z</time>
      </trkpt>
      <trkpt lat="48.18542" lon="4.72295">
        <ele>298</ele>
        <time>2024-07-03T07:49:18Z</time>
      </trkpt>
      <trkpt lat="48.18527" lon="4.72154">
        <ele>302</ele>
        <time>2024-07-03T07:49:35Z</time>
      </trkpt>
      <trkpt lat="48.18511" lon="4.72106">
        <ele>301</ele>
        <time>2024-07-03T07:49:41Z</time>
      </trkpt>
      <trkpt lat="48.18472" lon="4.72058">
        <ele>301</ele>
        <time>2024-07-03T07:49:50Z</time>
      </trkpt>
      <trkpt lat="48.18361" lon="4.71996">
        <ele>303</ele>
        <time>2024-07-03T07:50:12Z</time>
      </trkpt>
      <trkpt lat="48.18288" lon="4.72026">
        <ele>305</ele>
        <time>2024-07-03T07:50:25Z</time>
      </trkpt>
      <trkpt lat="48.18111" lon="4.71904">
        <ele>315</ele>
        <time>2024-07-03T07:51:00Z</time>
      </trkpt>
      <trkpt lat="48.18124" lon="4.71878">
        <ele>313</ele>
        <time>2024-07-03T07:51:04Z</time>
      </trkpt>
      <trkpt lat="48.18124" lon="4.71839">
        <ele>314</ele>
        <time>2024-07-03T07:51:08Z</time>
      </trkpt>
      <trkpt lat="48.18112" lon="4.71691">
        <ele>308</ele>
        <time>2024-07-03T07:51:26Z</time>
      </trkpt>
      <trkpt lat="48.18166" lon="4.71482">
        <ele>288</ele>
        <time>2024-07-03T07:51:52Z</time>
      </trkpt>
      <trkpt lat="48.18414" lon="4.71369">
        <ele>245</ele>
        <time>2024-07-03T07:52:39Z</time>
      </trkpt>
      <trkpt lat="48.18546" lon="4.71344">
        <ele>237</ele>
        <time>2024-07-03T07:53:02Z</time>
      </trkpt>
      <trkpt lat="48.18618" lon="4.71368">
        <ele>237</ele>
        <time>2024-07-03T07:53:15Z</time>
      </trkpt>
      <trkpt lat="48.18804" lon="4.71529">
        <ele>233</ele>
        <time>2024-07-03T07:53:54Z</time>
      </trkpt>
      <trkpt lat="48.18936" lon="4.71607">
        <ele>229</ele>
        <time>2024-07-03T07:54:19Z</time>
      </trkpt>
      <trkpt lat="48.1919" lon="4.71891">
        <ele>222</ele>
        <time>2024-07-03T07:55:15Z</time>
      </trkpt>
      <trkpt lat="48.19266" lon="4.71823">
        <ele>226</ele>
        <time>2024-07-03T07:55:31Z</time>
      </trkpt>
      <trkpt lat="48.193" lon="4.71789">
        <ele>230</ele>
        <time>2024-07-03T07:55:38Z</time>
      </trkpt>
      <trkpt lat="48.19337" lon="4.7181">
        <ele>232</ele>
        <time>2024-07-03T07:55:45Z</time>
      </trkpt>
      <trkpt lat="48.19362" lon="4.71723">
        <ele>240</ele>
        <time>2024-07-03T07:55:56Z</time>
      </trkpt>
      <trkpt lat="48.19406" lon="4.71462">
        <ele>263</ele>
        <time>2024-07-03T07:56:28Z</time>
      </trkpt>
      <trkpt lat="48.19378" lon="4.70141">
        <ele>336</ele>
        <time>2024-07-03T07:59:05Z</time>
      </trkpt>
      <trkpt lat="48.19411" lon="4.71039">
        <ele>306</ele>
        <time>2024-07-03T08:00:52Z</time>
      </trkpt>
      <trkpt lat="48.19405" lon="4.71441">
        <ele>265</ele>
        <time>2024-07-03T08:01:40Z</time>
      </trkpt>
      <trkpt lat="48.19482" lon="4.71335">
        <ele>275</ele>
        <time>2024-07-03T08:01:58Z</time>
      </trkpt>
      <trkpt lat="48.19559" lon="4.7152">
        <ele>270</ele>
        <time>2024-07-03T08:02:24Z</time>
      </trkpt>
      <trkpt lat="48.19589" lon="4.71567">
        <ele>270</ele>
        <time>2024-07-03T08:02:32Z</time>
      </trkpt>
      <trkpt lat="48.19711" lon="4.7174">
        <ele>267</ele>
        <time>2024-07-03T08:03:02Z</time>
      </trkpt>
      <trkpt lat="48.19772" lon="4.7193">
        <ele>258</ele>
        <time>2024-07-03T08:03:27Z</time>
      </trkpt>
      <trkpt lat="48.19771" lon="4.71965">
        <ele>255</ele>
        <time>2024-07-03T08:03:31Z</time>
      </trkpt>
      <trkpt lat="48.19666" lon="4.72">
        <ele>251</ele>
        <time>2024-07-03T08:03:50Z</time>
      </trkpt>
      <trkpt lat="48.19579" lon="4.72051">
        <ele>238</ele>
        <time>2024-07-03T08:04:06Z</time>
      </trkpt>
      <trkpt lat="48.19419" lon="4.72104">
        <ele>225</ele>
        <time>2024-07-03T08:04:36Z</time>
      </trkpt>
      <trkpt lat="48.19361" lon="4.72141">
        <ele>222</ele>
        <time>2024-07-03T08:04:47Z</time>
      </trkpt>
      <trkpt lat="48.19349" lon="4.72143">
        <ele>222</ele>
        <time>2024-07-03T08:04:49Z</time>
      </trkpt>
      <trkpt lat="48.19231" lon="4.72205">
        <ele>219</ele>
        <time>2024-07-03T08:05:11Z</time>
      </trkpt>
      <trkpt lat="48.18536" lon="4.7303">
        <ele>241</ele>
        <time>2024-07-03T08:07:49Z</time>
      </trkpt>
      <trkpt lat="48.18255" lon="4.7341">
        <ele>244</ele>
        <time>2024-07-03T08:08:56Z</time>
      </trkpt>
      <trkpt lat="48.1797" lon="4.73728">
        <ele>256</ele>
        <time>2024-07-03T08:09:59Z</time>
      </trkpt>
      <trkpt lat="48.17916" lon="4.73802">
        <ele>268</ele>
        <time>2024-07-03T08:10:12Z</time>
      </trkpt>
      <trkpt lat="48.17879" lon="4.73862">
        <ele>282</ele>
        <time>2024-07-03T08:10:22Z</time>
      </trkpt>
      <trkpt lat="48.17767" lon="4.73958">
        <ele>295</ele>
        <time>2024-07-03T08:10:45Z</time>
      </trkpt>
      <trkpt lat="48.17525" lon="4.74176">
        <ele>271</ele>
        <time>2024-07-03T08:11:35Z</time>
      </trkpt>
    </trkseg>
  </trk>
</gpx>